Dk Ione — 3ETX — position and weather

sailwx.info

Track history (hours):
 
Tides and Currents Weather Stations Pressure Air Temp Water Temp Dewpoint Dewpoint Depression Visibility Wind Speed Wind Dir Waves Ship Positions

Dk Ione

Last reported at 2016-Aug-20 13:28 UTC. Time now 2016-Sep-30 11:49 UTC.
Position S 34°44' W 057°48'.
Warning: this ship's position is 40 days out of date.

Length 196 m; draft 10 m.

Type: Cargo ship. MMSI: 353245000.

Date/timePositionNaut miles runAvg speedWind from/ knotsBaromVisibWave heightAir tempDewpointWater temp
2016-Aug-20 13:28S 34°44' W 057°48'1 0.8
2016-Aug-20 12:22S 34°44' W 057°49'0 0.0
2016-Aug-20 08:25S 34°44' W 057°49'0 0.0
2016-Aug-20 07:28S 34°44' W 057°49'0 0.1
2016-Aug-20 05:25S 34°44' W 057°49'0 0.2
2016-Aug-20 04:31S 34°44' W 057°49'0 0.1
2016-Aug-20 03:31S 34°44' W 057°49'0 0.0
2016-Aug-20 02:31S 34°44' W 057°49'4 4.5
2016-Aug-20 01:33S 34°42' W 057°53'1212.3
2016-Aug-20 00:33S 34°38' W 058°07'1210.6
2016-Aug-19 23:25S 34°32' W 058°20'10 9.7
2016-Aug-19 22:21S 34°23' W 058°27'8 9.6
2016-Aug-19 21:33S 34°18' W 058°34'  
Track history (hours):
 
Tides and Currents Weather Stations Pressure Air Temp Water Temp Dewpoint Dewpoint Depression Visibility Wind Speed Wind Dir Waves Ship Positions

Dk Ione

Last reported at 2016-Aug-20 13:28 UTC. Time now 2016-Sep-30 11:49 UTC.
Position S 34°44' W 057°48'.
Warning: this ship's position is 40 days out of date.

Length 196 m; draft 10 m.

Type: Cargo ship. MMSI: 353245000.

Date/timePositionNaut miles runAvg speedWind from/ knotsBaromVisibWave heightAir tempDewpointWater temp
2016-Aug-20 13:28S 34°44' W 057°48'1 0.8
2016-Aug-20 12:22S 34°44' W 057°49'0 0.0
2016-Aug-20 08:25S 34°44' W 057°49'0 0.0
2016-Aug-20 07:28S 34°44' W 057°49'0 0.1
2016-Aug-20 05:25S 34°44' W 057°49'0 0.2
2016-Aug-20 04:31S 34°44' W 057°49'0 0.1
2016-Aug-20 03:31S 34°44' W 057°49'0 0.0
2016-Aug-20 02:31S 34°44' W 057°49'4 4.5
2016-Aug-20 01:33S 34°42' W 057°53'1212.3
2016-Aug-20 00:33S 34°38' W 058°07'1210.6
2016-Aug-19 23:25S 34°32' W 058°20'10 9.7
2016-Aug-19 22:21S 34°23' W 058°27'8 9.6
2016-Aug-19 21:33S 34°18' W 058°34'  

Dump ship's entire track history